sensor_id;sensor_type;location;lat;lon;timestamp;temperature;humidity
14962;DHT22;56489;53.166;10.864;2022-09-09T00:04:53;13.00;99.90
14962;DHT22;56489;53.166;10.864;2022-09-09T00:07:03;13.00;99.90
14962;DHT22;56489;53.166;10.864;2022-09-09T00:09:46;13.00;99.90
14962;DHT22;56489;53.166;10.864;2022-09-09T00:12:40;13.00;99.90
14962;DHT22;56489;53.166;10.864;2022-09-09T00:15:14;12.90;99.90
14962;DHT22;56489;53.166;10.864;2022-09-09T00:18:03;12.90;99.90
14962;DHT22;56489;53.166;10.864;2022-09-09T00:20:52;12.90;99.90
14962;DHT22;56489;53.166;10.864;2022-09-09T00:23:39;12.90;99.90
14962;DHT22;56489;53.166;10.864;2022-09-09T00:26:27;12.80;99.90
14962;DHT22;56489;53.166;10.864;2022-09-09T00:31:39;12.80;99.90
14962;DHT22;56489;53.166;10.864;2022-09-09T00:34:11;12.70;99.90
14962;DHT22;56489;53.166;10.864;2022-09-09T00:36:41;12.70;99.90
14962;DHT22;56489;53.166;10.864;2022-09-09T00:39:23;12.60;99.90
14962;DHT22;56489;53.166;10.864;2022-09-09T00:44:51;12.60;99.90
14962;DHT22;56489;53.166;10.864;2022-09-09T00:47:49;12.60;99.90
14962;DHT22;56489;53.166;10.864;2022-09-09T00:53:12;12.60;99.90
14962;DHT22;56489;53.166;10.864;2022-09-09T00:58:36;12.70;99.90
14962;DHT22;56489;53.166;10.864;2022-09-09T01:01:08;12.60;99.90
14962;DHT22;56489;53.166;10.864;2022-09-09T01:03:46;12.60;99.90
14962;DHT22;56489;53.166;10.864;2022-09-09T01:12:55;12.60;99.90
14962;DHT22;56489;53.166;10.864;2022-09-09T01:15:28;12.60;99.90
14962;DHT22;56489;53.166;10.864;2022-09-09T01:18:06;12.50;99.90
14962;DHT22;56489;53.166;10.864;2022-09-09T01:20:47;12.50;99.90
14962;DHT22;56489;53.166;10.864;2022-09-09T01:26:21;12.40;99.90
14962;DHT22;56489;53.166;10.864;2022-09-09T01:28:52;12.40;99.90
14962;DHT22;56489;53.166;10.864;2022-09-09T01:31:38;12.40;99.90
14962;DHT22;56489;53.166;10.864;2022-09-09T01:34:10;12.30;99.90
14962;DHT22;56489;53.166;10.864;2022-09-09T01:36:45;12.30;99.90
14962;DHT22;56489;53.166;10.864;2022-09-09T01:39:13;12.30;99.90
14962;DHT22;56489;53.166;10.864;2022-09-09T01:41:40;12.30;99.90
14962;DHT22;56489;53.166;10.864;2022-09-09T01:44:08;12.30;99.90
14962;DHT22;56489;53.166;10.864;2022-09-09T01:46:35;12.20;99.90
14962;DHT22;56489;53.166;10.864;2022-09-09T01:49:05;12.20;99.90
14962;DHT22;56489;53.166;10.864;2022-09-09T01:51:34;12.20;99.90
14962;DHT22;56489;53.166;10.864;2022-09-09T01:54:02;12.10;99.90
14962;DHT22;56489;53.166;10.864;2022-09-09T01:56:47;12.10;99.90
14962;DHT22;56489;53.166;10.864;2022-09-09T02:02:30;12.10;99.90
14962;DHT22;56489;53.166;10.864;2022-09-09T02:05:38;12.10;99.90
14962;DHT22;56489;53.166;10.864;2022-09-09T02:08:14;12.10;99.90
14962;DHT22;56489;53.166;10.864;2022-09-09T02:10:50;12.10;99.90
14962;DHT22;56489;53.166;10.864;2022-09-09T02:13:21;12.10;99.90
14962;DHT22;56489;53.166;10.864;2022-09-09T02:15:57;12.00;99.90
14962;DHT22;56489;53.166;10.864;2022-09-09T02:18:38;12.00;99.90
14962;DHT22;56489;53.166;10.864;2022-09-09T02:21:07;12.00;99.90
14962;DHT22;56489;53.166;10.864;2022-09-09T02:23:34;12.00;99.90
14962;DHT22;56489;53.166;10.864;2022-09-09T02:26:03;12.00;99.90
14962;DHT22;56489;53.166;10.864;2022-09-09T02:28:33;12.00;99.90
14962;DHT22;56489;53.166;10.864;2022-09-09T02:31:02;12.00;99.90
14962;DHT22;56489;53.166;10.864;2022-09-09T02:33:35;12.00;99.90
14962;DHT22;56489;53.166;10.864;2022-09-09T02:36:03;12.10;99.90
14962;DHT22;56489;53.166;10.864;2022-09-09T02:38:37;12.00;99.90
14962;DHT22;56489;53.166;10.864;2022-09-09T02:41:06;12.10;99.90
14962;DHT22;56489;53.166;10.864;2022-09-09T02:43:36;12.10;99.90
14962;DHT22;56489;53.166;10.864;2022-09-09T02:46:16;12.10;99.90
14962;DHT22;56489;53.166;10.864;2022-09-09T02:56:43;12.00;99.90
14962;DHT22;56489;53.166;10.864;2022-09-09T02:59:12;11.90;99.90
14962;DHT22;56489;53.166;10.864;2022-09-09T03:01:39;11.90;99.90
14962;DHT22;56489;53.166;10.864;2022-09-09T03:04:06;11.80;99.90
14962;DHT22;56489;53.166;10.864;2022-09-09T03:06:33;11.70;99.90
14962;DHT22;56489;53.166;10.864;2022-09-09T03:09:00;11.70;99.90
14962;DHT22;56489;53.166;10.864;2022-09-09T03:11:29;11.70;99.90
14962;DHT22;56489;53.166;10.864;2022-09-09T03:13:55;11.70;99.90
14962;DHT22;56489;53.166;10.864;2022-09-09T03:16:25;11.70;99.90
14962;DHT22;56489;53.166;10.864;2022-09-09T03:18:52;11.70;99.90
14962;DHT22;56489;53.166;10.864;2022-09-09T03:21:18;11.70;99.90
14962;DHT22;56489;53.166;10.864;2022-09-09T03:23:45;11.60;99.90
14962;DHT22;56489;53.166;10.864;2022-09-09T03:26:12;11.60;99.90
14962;DHT22;56489;53.166;10.864;2022-09-09T03:28:42;11.60;99.90
14962;DHT22;56489;53.166;10.864;2022-09-09T03:31:11;11.60;99.90
14962;DHT22;56489;53.166;10.864;2022-09-09T03:33:38;11.50;99.90
14962;DHT22;56489;53.166;10.864;2022-09-09T03:36:05;11.50;99.90
14962;DHT22;56489;53.166;10.864;2022-09-09T03:38:33;11.60;99.90
14962;DHT22;56489;53.166;10.864;2022-09-09T03:41:01;11.60;99.90
14962;DHT22;56489;53.166;10.864;2022-09-09T03:43:28;11.60;99.90
14962;DHT22;56489;53.166;10.864;2022-09-09T03:45:56;11.50;99.90
14962;DHT22;56489;53.166;10.864;2022-09-09T03:48:24;11.50;99.90
14962;DHT22;56489;53.166;10.864;2022-09-09T03:50:53;11.40;99.90
14962;DHT22;56489;53.166;10.864;2022-09-09T03:53:23;11.40;99.90
14962;DHT22;56489;53.166;10.864;2022-09-09T03:55:54;11.40;99.90
14962;DHT22;56489;53.166;10.864;2022-09-09T03:58:22;11.30;99.90
14962;DHT22;56489;53.166;10.864;2022-09-09T04:00:55;11.30;99.90
14962;DHT22;56489;53.166;10.864;2022-09-09T04:03:23;11.20;99.90
14962;DHT22;56489;53.166;10.864;2022-09-09T04:05:56;11.20;99.90
14962;DHT22;56489;53.166;10.864;2022-09-09T04:08:23;11.20;99.90
14962;DHT22;56489;53.166;10.864;2022-09-09T04:10:53;11.30;99.90
14962;DHT22;56489;53.166;10.864;2022-09-09T04:13:21;11.20;99.90
14962;DHT22;56489;53.166;10.864;2022-09-09T04:15:56;11.20;99.90
14962;DHT22;56489;53.166;10.864;2022-09-09T04:18:25;11.20;99.90
14962;DHT22;56489;53.166;10.864;2022-09-09T04:20:53;11.20;99.90
14962;DHT22;56489;53.166;10.864;2022-09-09T04:23:20;11.20;99.90
14962;DHT22;56489;53.166;10.864;2022-09-09T04:25:48;11.20;99.90
14962;DHT22;56489;53.166;10.864;2022-09-09T04:28:17;11.20;99.90
14962;DHT22;56489;53.166;10.864;2022-09-09T04:30:44;11.20;99.90
14962;DHT22;56489;53.166;10.864;2022-09-09T04:33:13;11.20;99.90
14962;DHT22;56489;53.166;10.864;2022-09-09T04:35:44;11.20;99.90
14962;DHT22;56489;53.166;10.864;2022-09-09T04:38:11;11.20;99.90
14962;DHT22;56489;53.166;10.864;2022-09-09T04:40:38;11.20;99.90
14962;DHT22;56489;53.166;10.864;2022-09-09T04:43:09;11.20;99.90
14962;DHT22;56489;53.166;10.864;2022-09-09T04:45:40;11.20;99.90
14962;DHT22;56489;53.166;10.864;2022-09-09T04:48:07;11.20;99.90
14962;DHT22;56489;53.166;10.864;2022-09-09T04:50:34;11.20;99.90
14962;DHT22;56489;53.166;10.864;2022-09-09T04:53:02;11.30;99.90
14962;DHT22;56489;53.166;10.864;2022-09-09T04:55:29;11.40;99.90
14962;DHT22;56489;53.166;10.864;2022-09-09T04:57:57;11.50;99.90
14962;DHT22;56489;53.166;10.864;2022-09-09T05:00:24;11.60;99.90
14962;DHT22;56489;53.166;10.864;2022-09-09T05:02:51;11.70;99.90
14962;DHT22;56489;53.166;10.864;2022-09-09T05:05:18;11.80;99.90
14962;DHT22;56489;53.166;10.864;2022-09-09T05:07:45;11.80;99.90
14962;DHT22;56489;53.166;10.864;2022-09-09T05:10:13;11.90;99.90
14962;DHT22;56489;53.166;10.864;2022-09-09T05:12:40;12.00;99.90
14962;DHT22;56489;53.166;10.864;2022-09-09T05:15:07;12.00;99.90
14962;DHT22;56489;53.166;10.864;2022-09-09T05:17:34;12.00;99.90
14962;DHT22;56489;53.166;10.864;2022-09-09T05:20:01;12.00;99.90
14962;DHT22;56489;53.166;10.864;2022-09-09T05:22:35;12.00;99.90
14962;DHT22;56489;53.166;10.864;2022-09-09T05:25:02;12.10;99.90
14962;DHT22;56489;53.166;10.864;2022-09-09T05:27:29;12.20;99.90
14962;DHT22;56489;53.166;10.864;2022-09-09T05:29:57;12.30;99.90
14962;DHT22;56489;53.166;10.864;2022-09-09T05:32:24;12.40;99.90
14962;DHT22;56489;53.166;10.864;2022-09-09T05:34:51;12.50;99.90
14962;DHT22;56489;53.166;10.864;2022-09-09T05:37:18;12.50;99.90
14962;DHT22;56489;53.166;10.864;2022-09-09T05:39:45;12.60;99.90
14962;DHT22;56489;53.166;10.864;2022-09-09T05:42:12;12.60;99.90
14962;DHT22;56489;53.166;10.864;2022-09-09T05:44:39;12.60;99.90
14962;DHT22;56489;53.166;10.864;2022-09-09T05:47:06;12.60;99.90
14962;DHT22;56489;53.166;10.864;2022-09-09T05:49:34;12.60;99.90
14962;DHT22;56489;53.166;10.864;2022-09-09T05:52:01;12.60;99.90
14962;DHT22;56489;53.166;10.864;2022-09-09T05:54:30;12.60;99.90
14962;DHT22;56489;53.166;10.864;2022-09-09T05:56:57;12.60;99.90
14962;DHT22;56489;53.166;10.864;2022-09-09T05:59:25;12.70;99.90
14962;DHT22;56489;53.166;10.864;2022-09-09T06:01:52;12.80;99.90
14962;DHT22;56489;53.166;10.864;2022-09-09T06:04:18;13.00;99.90
14962;DHT22;56489;53.166;10.864;2022-09-09T06:06:49;13.10;99.90
14962;DHT22;56489;53.166;10.864;2022-09-09T06:09:16;13.20;99.90
14962;DHT22;56489;53.166;10.864;2022-09-09T06:11:42;13.40;99.90
14962;DHT22;56489;53.166;10.864;2022-09-09T06:14:09;13.50;99.90
14962;DHT22;56489;53.166;10.864;2022-09-09T06:16:37;13.60;99.90
14962;DHT22;56489;53.166;10.864;2022-09-09T06:19:08;13.70;99.90
14962;DHT22;56489;53.166;10.864;2022-09-09T06:21:36;13.70;99.90
14962;DHT22;56489;53.166;10.864;2022-09-09T06:24:04;13.80;99.90
14962;DHT22;56489;53.166;10.864;2022-09-09T06:26:33;13.80;99.90
14962;DHT22;56489;53.166;10.864;2022-09-09T06:29:01;13.90;99.90
14962;DHT22;56489;53.166;10.864;2022-09-09T06:31:32;13.90;99.90
14962;DHT22;56489;53.166;10.864;2022-09-09T06:34:01;13.90;99.90
14962;DHT22;56489;53.166;10.864;2022-09-09T06:36:30;14.00;99.90
14962;DHT22;56489;53.166;10.864;2022-09-09T06:38:57;14.00;99.90
14962;DHT22;56489;53.166;10.864;2022-09-09T06:41:29;14.10;99.90
14962;DHT22;56489;53.166;10.864;2022-09-09T06:43:57;14.10;99.90
14962;DHT22;56489;53.166;10.864;2022-09-09T06:46:30;14.10;99.90
14962;DHT22;56489;53.166;10.864;2022-09-09T06:48:59;14.20;99.90
14962;DHT22;56489;53.166;10.864;2022-09-09T06:51:30;14.20;99.90
14962;DHT22;56489;53.166;10.864;2022-09-09T06:53:59;14.30;99.90
14962;DHT22;56489;53.166;10.864;2022-09-09T06:56:28;14.30;99.90
14962;DHT22;56489;53.166;10.864;2022-09-09T06:58:57;14.40;99.90
14962;DHT22;56489;53.166;10.864;2022-09-09T07:01:26;14.50;99.90
14962;DHT22;56489;53.166;10.864;2022-09-09T07:03:55;14.60;99.90
14962;DHT22;56489;53.166;10.864;2022-09-09T07:06:24;14.70;99.90
14962;DHT22;56489;53.166;10.864;2022-09-09T07:08:52;14.90;99.90
14962;DHT22;56489;53.166;10.864;2022-09-09T07:11:24;15.00;99.90
14962;DHT22;56489;53.166;10.864;2022-09-09T07:13:53;15.10;99.90
14962;DHT22;56489;53.166;10.864;2022-09-09T07:16:21;15.20;99.90
14962;DHT22;56489;53.166;10.864;2022-09-09T07:18:51;15.30;99.90
14962;DHT22;56489;53.166;10.864;2022-09-09T07:21:19;15.40;99.90
14962;DHT22;56489;53.166;10.864;2022-09-09T07:23:47;15.50;99.90
14962;DHT22;56489;53.166;10.864;2022-09-09T07:26:17;15.70;99.90
14962;DHT22;56489;53.166;10.864;2022-09-09T07:28:46;15.80;99.90
14962;DHT22;56489;53.166;10.864;2022-09-09T07:31:18;15.90;99.90
14962;DHT22;56489;53.166;10.864;2022-09-09T07:33:45;16.00;99.90
14962;DHT22;56489;53.166;10.864;2022-09-09T07:36:15;16.10;99.90
14962;DHT22;56489;53.166;10.864;2022-09-09T07:38:46;16.00;99.90
14962;DHT22;56489;53.166;10.864;2022-09-09T07:41:28;16.00;99.90
14962;DHT22;56489;53.166;10.864;2022-09-09T07:43:56;16.00;99.90
14962;DHT22;56489;53.166;10.864;2022-09-09T07:46:25;16.00;99.90
14962;DHT22;56489;53.166;10.864;2022-09-09T07:48:53;16.10;99.90
14962;DHT22;56489;53.166;10.864;2022-09-09T07:51:30;16.20;99.90
14962;DHT22;56489;53.166;10.864;2022-09-09T07:54:00;16.30;99.90
14962;DHT22;56489;53.166;10.864;2022-09-09T07:56:29;16.30;99.90
14962;DHT22;56489;53.166;10.864;2022-09-09T07:58:59;16.30;99.90
14962;DHT22;56489;53.166;10.864;2022-09-09T08:01:32;16.50;99.90
14962;DHT22;56489;53.166;10.864;2022-09-09T08:04:04;16.60;99.90
14962;DHT22;56489;53.166;10.864;2022-09-09T08:06:36;16.70;99.90
14962;DHT22;56489;53.166;10.864;2022-09-09T08:09:04;16.80;99.90
14962;DHT22;56489;53.166;10.864;2022-09-09T08:11:31;16.90;99.90
14962;DHT22;56489;53.166;10.864;2022-09-09T08:14:05;17.00;99.90
14962;DHT22;56489;53.166;10.864;2022-09-09T08:16:34;17.00;99.90
14962;DHT22;56489;53.166;10.864;2022-09-09T08:19:03;17.00;99.90
14962;DHT22;56489;53.166;10.864;2022-09-09T08:21:31;17.00;99.90
14962;DHT22;56489;53.166;10.864;2022-09-09T08:24:00;17.00;99.90
14962;DHT22;56489;53.166;10.864;2022-09-09T08:26:30;17.10;99.90
14962;DHT22;56489;53.166;10.864;2022-09-09T08:28:58;17.20;99.90
14962;DHT22;56489;53.166;10.864;2022-09-09T08:31:34;17.30;99.90
14962;DHT22;56489;53.166;10.864;2022-09-09T08:34:03;17.30;99.90
14962;DHT22;56489;53.166;10.864;2022-09-09T08:36:32;17.50;99.90
14962;DHT22;56489;53.166;10.864;2022-09-09T08:39:00;17.60;99.90
14962;DHT22;56489;53.166;10.864;2022-09-09T08:50:05;17.40;99.90
14962;DHT22;56489;53.166;10.864;2022-09-09T08:52:59;17.40;99.90
14962;DHT22;56489;53.166;10.864;2022-09-09T08:55:51;17.50;99.90
14962;DHT22;56489;53.166;10.864;2022-09-09T08:58:21;17.60;99.90
14962;DHT22;56489;53.166;10.864;2022-09-09T09:01:05;17.70;99.90
14962;DHT22;56489;53.166;10.864;2022-09-09T09:03:41;17.70;99.90
14962;DHT22;56489;53.166;10.864;2022-09-09T09:06:34;17.70;99.90
14962;DHT22;56489;53.166;10.864;2022-09-09T09:11:55;17.70;99.90
14962;DHT22;56489;53.166;10.864;2022-09-09T09:14:34;17.70;99.90
14962;DHT22;56489;53.166;10.864;2022-09-09T09:17:04;17.70;99.90
14962;DHT22;56489;53.166;10.864;2022-09-09T09:19:34;17.70;99.90
14962;DHT22;56489;53.166;10.864;2022-09-09T09:24:59;17.80;99.90
14962;DHT22;56489;53.166;10.864;2022-09-09T09:27:40;17.90;99.90
14962;DHT22;56489;53.166;10.864;2022-09-09T09:33:02;18.30;99.90
14962;DHT22;56489;53.166;10.864;2022-09-09T09:35:29;18.40;99.90
14962;DHT22;56489;53.166;10.864;2022-09-09T09:37:56;18.50;99.90
14962;DHT22;56489;53.166;10.864;2022-09-09T09:40:54;18.60;99.90
14962;DHT22;56489;53.166;10.864;2022-09-09T09:43:30;18.80;99.90
14962;DHT22;56489;53.166;10.864;2022-09-09T09:45:57;18.90;99.90
14962;DHT22;56489;53.166;10.864;2022-09-09T09:48:44;19.10;99.90
14962;DHT22;56489;53.166;10.864;2022-09-09T09:51:22;19.20;99.90
14962;DHT22;56489;53.166;10.864;2022-09-09T09:53:49;19.30;99.90
14962;DHT22;56489;53.166;10.864;2022-09-09T09:56:15;19.40;99.90
14962;DHT22;56489;53.166;10.864;2022-09-09T10:01:32;19.50;99.90
14962;DHT22;56489;53.166;10.864;2022-09-09T10:04:12;19.50;99.90
14962;DHT22;56489;53.166;10.864;2022-09-09T10:06:40;19.60;99.90
14962;DHT22;56489;53.166;10.864;2022-09-09T10:09:28;19.60;99.90
14962;DHT22;56489;53.166;10.864;2022-09-09T10:17:30;19.70;99.90
14962;DHT22;56489;53.166;10.864;2022-09-09T10:22:39;19.80;99.90
14962;DHT22;56489;53.166;10.864;2022-09-09T10:25:16;19.80;99.90
14962;DHT22;56489;53.166;10.864;2022-09-09T10:28:16;19.80;99.90
14962;DHT22;56489;53.166;10.864;2022-09-09T10:36:19;19.90;99.90
14962;DHT22;56489;53.166;10.864;2022-09-09T10:39:01;20.00;99.90
14962;DHT22;56489;53.166;10.864;2022-09-09T10:50:15;19.80;99.90
14962;DHT22;56489;53.166;10.864;2022-09-09T10:55:41;19.90;99.90
14962;DHT22;56489;53.166;10.864;2022-09-09T10:58:33;20.00;99.90
14962;DHT22;56489;53.166;10.864;2022-09-09T11:01:10;19.90;99.90
14962;DHT22;56489;53.166;10.864;2022-09-09T11:03:41;20.00;99.90
14962;DHT22;56489;53.166;10.864;2022-09-09T11:06:16;20.00;99.90
14962;DHT22;56489;53.166;10.864;2022-09-09T11:08:45;20.00;99.90
14962;DHT22;56489;53.166;10.864;2022-09-09T11:11:21;20.20;99.90
14962;DHT22;56489;53.166;10.864;2022-09-09T11:14:26;20.20;99.90
14962;DHT22;56489;53.166;10.864;2022-09-09T11:17:03;20.30;99.90
14962;DHT22;56489;53.166;10.864;2022-09-09T11:19:39;20.40;99.90
14962;DHT22;56489;53.166;10.864;2022-09-09T11:25:04;20.50;99.90
14962;DHT22;56489;53.166;10.864;2022-09-09T11:36:35;20.80;99.90
14962;DHT22;56489;53.166;10.864;2022-09-09T11:42:17;21.00;99.90
14962;DHT22;56489;53.166;10.864;2022-09-09T11:44:44;21.00;99.90
14962;DHT22;56489;53.166;10.864;2022-09-09T11:47:30;20.90;99.90
14962;DHT22;56489;53.166;10.864;2022-09-09T11:50:09;20.80;99.90
14962;DHT22;56489;53.166;10.864;2022-09-09T11:52:41;20.70;99.90
14962;DHT22;56489;53.166;10.864;2022-09-09T12:00:40;20.50;99.90
14962;DHT22;56489;53.166;10.864;2022-09-09T12:06:29;20.40;99.90
14962;DHT22;56489;53.166;10.864;2022-09-09T12:09:15;20.30;99.90
14962;DHT22;56489;53.166;10.864;2022-09-09T12:11:43;20.20;99.90
14962;DHT22;56489;53.166;10.864;2022-09-09T12:14:21;20.10;99.90
14962;DHT22;56489;53.166;10.864;2022-09-09T12:16:49;20.10;99.90
14962;DHT22;56489;53.166;10.864;2022-09-09T12:19:23;19.90;99.90
14962;DHT22;56489;53.166;10.864;2022-09-09T12:25:00;19.60;99.90
14962;DHT22;56489;53.166;10.864;2022-09-09T12:27:36;19.50;99.90
14962;DHT22;56489;53.166;10.864;2022-09-09T12:30:14;19.50;99.90
14962;DHT22;56489;53.166;10.864;2022-09-09T12:32:41;19.50;99.90
14962;DHT22;56489;53.166;10.864;2022-09-09T12:35:20;19.30;99.90
14962;DHT22;56489;53.166;10.864;2022-09-09T12:37:52;19.40;99.90
14962;DHT22;56489;53.166;10.864;2022-09-09T12:40:23;19.40;99.90
14962;DHT22;56489;53.166;10.864;2022-09-09T12:42:50;19.40;99.90
14962;DHT22;56489;53.166;10.864;2022-09-09T12:45:19;19.50;99.90
14962;DHT22;56489;53.166;10.864;2022-09-09T12:48:00;19.20;99.90
14962;DHT22;56489;53.166;10.864;2022-09-09T12:50:33;19.10;99.90
14962;DHT22;56489;53.166;10.864;2022-09-09T12:53:07;19.10;99.90
14962;DHT22;56489;53.166;10.864;2022-09-09T12:55:38;18.90;99.90
14962;DHT22;56489;53.166;10.864;2022-09-09T12:58:06;18.80;99.90
14962;DHT22;56489;53.166;10.864;2022-09-09T13:00:34;18.80;99.90
14962;DHT22;56489;53.166;10.864;2022-09-09T13:03:13;18.90;99.90
14962;DHT22;56489;53.166;10.864;2022-09-09T13:05:40;18.90;99.90
14962;DHT22;56489;53.166;10.864;2022-09-09T13:08:14;18.90;99.90
14962;DHT22;56489;53.166;10.864;2022-09-09T13:10:53;18.90;99.90
14962;DHT22;56489;53.166;10.864;2022-09-09T13:13:33;18.80;99.90
14962;DHT22;56489;53.166;10.864;2022-09-09T13:16:02;18.80;99.90
14962;DHT22;56489;53.166;10.864;2022-09-09T13:18:36;18.80;99.90
14962;DHT22;56489;53.166;10.864;2022-09-09T13:21:04;18.90;99.90
14962;DHT22;56489;53.166;10.864;2022-09-09T13:23:33;18.90;99.90
14962;DHT22;56489;53.166;10.864;2022-09-09T13:26:06;19.10;99.90
14962;DHT22;56489;53.166;10.864;2022-09-09T13:28:46;19.20;99.90
14962;DHT22;56489;53.166;10.864;2022-09-09T13:31:30;19.30;99.90
14962;DHT22;56489;53.166;10.864;2022-09-09T13:33:58;19.30;99.90
14962;DHT22;56489;53.166;10.864;2022-09-09T13:36:30;19.30;99.90
14962;DHT22;56489;53.166;10.864;2022-09-09T13:39:03;19.20;99.90
14962;DHT22;56489;53.166;10.864;2022-09-09T13:41:42;19.10;99.90
14962;DHT22;56489;53.166;10.864;2022-09-09T13:44:24;19.10;99.90
14962;DHT22;56489;53.166;10.864;2022-09-09T13:47:05;19.00;99.90
14962;DHT22;56489;53.166;10.864;2022-09-09T13:49:36;18.90;99.90
14962;DHT22;56489;53.166;10.864;2022-09-09T13:52:10;18.80;99.90
14962;DHT22;56489;53.166;10.864;2022-09-09T13:54:38;18.70;99.90
14962;DHT22;56489;53.166;10.864;2022-09-09T13:57:15;18.60;99.90
14962;DHT22;56489;53.166;10.864;2022-09-09T13:59:42;18.40;99.90
14962;DHT22;56489;53.166;10.864;2022-09-09T14:02:29;18.10;99.90
14962;DHT22;56489;53.166;10.864;2022-09-09T14:04:57;17.90;99.90
14962;DHT22;56489;53.166;10.864;2022-09-09T14:07:24;17.70;99.90
14962;DHT22;56489;53.166;10.864;2022-09-09T14:09:51;17.60;99.90
14962;DHT22;56489;53.166;10.864;2022-09-09T14:12:19;17.50;99.90
14962;DHT22;56489;53.166;10.864;2022-09-09T14:14:46;17.50;99.90
14962;DHT22;56489;53.166;10.864;2022-09-09T14:17:13;17.30;99.90
14962;DHT22;56489;53.166;10.864;2022-09-09T14:19:40;17.20;99.90
14962;DHT22;56489;53.166;10.864;2022-09-09T14:22:07;17.20;99.90
14962;DHT22;56489;53.166;10.864;2022-09-09T14:24:34;17.10;99.90
14962;DHT22;56489;53.166;10.864;2022-09-09T14:27:01;17.00;99.90
14962;DHT22;56489;53.166;10.864;2022-09-09T14:29:28;16.90;99.90
14962;DHT22;56489;53.166;10.864;2022-09-09T14:31:54;16.90;99.90
14962;DHT22;56489;53.166;10.864;2022-09-09T14:34:21;16.80;99.90
14962;DHT22;56489;53.166;10.864;2022-09-09T14:36:48;16.70;99.90
14962;DHT22;56489;53.166;10.864;2022-09-09T14:39:15;16.60;99.90
14962;DHT22;56489;53.166;10.864;2022-09-09T14:41:41;16.60;99.90
14962;DHT22;56489;53.166;10.864;2022-09-09T14:44:08;16.50;99.90
14962;DHT22;56489;53.166;10.864;2022-09-09T14:46:35;16.50;99.90
14962;DHT22;56489;53.166;10.864;2022-09-09T14:49:02;16.50;99.90
14962;DHT22;56489;53.166;10.864;2022-09-09T14:51:28;16.50;99.90
14962;DHT22;56489;53.166;10.864;2022-09-09T14:53:58;16.40;99.90
14962;DHT22;56489;53.166;10.864;2022-09-09T14:56:28;16.40;99.90
14962;DHT22;56489;53.166;10.864;2022-09-09T14:58:58;16.30;99.90
14962;DHT22;56489;53.166;10.864;2022-09-09T15:01:25;16.30;99.90
14962;DHT22;56489;53.166;10.864;2022-09-09T15:04:01;16.30;99.90
14962;DHT22;56489;53.166;10.864;2022-09-09T15:06:30;16.30;99.90
14962;DHT22;56489;53.166;10.864;2022-09-09T15:09:00;16.30;99.90
14962;DHT22;56489;53.166;10.864;2022-09-09T15:11:28;16.30;99.90
14962;DHT22;56489;53.166;10.864;2022-09-09T15:13:56;16.30;99.90
14962;DHT22;56489;53.166;10.864;2022-09-09T15:16:27;16.30;99.90
14962;DHT22;56489;53.166;10.864;2022-09-09T15:18:56;16.30;99.90
14962;DHT22;56489;53.166;10.864;2022-09-09T15:21:26;16.30;99.90
14962;DHT22;56489;53.166;10.864;2022-09-09T15:23:54;16.20;99.90
14962;DHT22;56489;53.166;10.864;2022-09-09T15:26:21;16.30;99.90
14962;DHT22;56489;53.166;10.864;2022-09-09T15:28:48;16.30;99.90
14962;DHT22;56489;53.166;10.864;2022-09-09T15:31:21;16.30;99.90
14962;DHT22;56489;53.166;10.864;2022-09-09T15:33:56;16.60;99.90
14962;DHT22;56489;53.166;10.864;2022-09-09T15:36:30;16.40;99.90
14962;DHT22;56489;53.166;10.864;2022-09-09T15:39:03;16.30;99.90
14962;DHT22;56489;53.166;10.864;2022-09-09T15:41:31;16.40;99.90
14962;DHT22;56489;53.166;10.864;2022-09-09T15:43:58;16.40;99.90
14962;DHT22;56489;53.166;10.864;2022-09-09T15:49:07;16.50;99.90
14962;DHT22;56489;53.166;10.864;2022-09-09T15:51:38;16.50;99.90
14962;DHT22;56489;53.166;10.864;2022-09-09T15:54:17;16.50;99.90
14962;DHT22;56489;53.166;10.864;2022-09-09T15:56:46;16.50;99.90
14962;DHT22;56489;53.166;10.864;2022-09-09T15:59:15;16.50;99.90
14962;DHT22;56489;53.166;10.864;2022-09-09T16:01:42;16.50;99.90
14962;DHT22;56489;53.166;10.864;2022-09-09T16:04:10;16.50;99.90
14962;DHT22;56489;53.166;10.864;2022-09-09T16:06:37;16.50;99.90
14962;DHT22;56489;53.166;10.864;2022-09-09T16:09:06;16.50;99.90
14962;DHT22;56489;53.166;10.864;2022-09-09T16:11:36;16.50;99.90
14962;DHT22;56489;53.166;10.864;2022-09-09T16:14:03;16.50;99.90
14962;DHT22;56489;53.166;10.864;2022-09-09T16:16:31;16.50;99.90
14962;DHT22;56489;53.166;10.864;2022-09-09T16:18:59;16.50;99.90
14962;DHT22;56489;53.166;10.864;2022-09-09T16:21:32;16.50;99.90
14962;DHT22;56489;53.166;10.864;2022-09-09T16:24:01;16.40;99.90
14962;DHT22;56489;53.166;10.864;2022-09-09T16:26:31;16.40;99.90
14962;DHT22;56489;53.166;10.864;2022-09-09T16:28:59;16.40;99.90
14962;DHT22;56489;53.166;10.864;2022-09-09T16:31:27;16.40;99.90
14962;DHT22;56489;53.166;10.864;2022-09-09T16:33:55;16.30;99.90
14962;DHT22;56489;53.166;10.864;2022-09-09T16:36:24;16.30;99.90
14962;DHT22;56489;53.166;10.864;2022-09-09T16:38:53;16.30;99.90
14962;DHT22;56489;53.166;10.864;2022-09-09T16:41:22;16.30;99.90
14962;DHT22;56489;53.166;10.864;2022-09-09T16:43:56;16.20;99.90
14962;DHT22;56489;53.166;10.864;2022-09-09T16:46:24;16.20;99.90
14962;DHT22;56489;53.166;10.864;2022-09-09T16:48:51;16.20;99.90
14962;DHT22;56489;53.166;10.864;2022-09-09T16:51:26;16.20;99.90
14962;DHT22;56489;53.166;10.864;2022-09-09T16:53:55;16.20;99.90
14962;DHT22;56489;53.166;10.864;2022-09-09T16:56:25;16.10;99.90
14962;DHT22;56489;53.166;10.864;2022-09-09T16:58:57;16.20;99.90
14962;DHT22;56489;53.166;10.864;2022-09-09T17:01:25;16.10;99.90
14962;DHT22;56489;53.166;10.864;2022-09-09T17:03:53;16.10;99.90
14962;DHT22;56489;53.166;10.864;2022-09-09T17:06:27;16.10;99.90
14962;DHT22;56489;53.166;10.864;2022-09-09T17:08:54;16.00;99.90
14962;DHT22;56489;53.166;10.864;2022-09-09T17:11:21;15.90;99.90
14962;DHT22;56489;53.166;10.864;2022-09-09T17:13:50;15.90;99.90
14962;DHT22;56489;53.166;10.864;2022-09-09T17:16:19;15.80;99.90
14962;DHT22;56489;53.166;10.864;2022-09-09T17:18:49;15.80;99.90
14962;DHT22;56489;53.166;10.864;2022-09-09T17:21:18;15.70;99.90
14962;DHT22;56489;53.166;10.864;2022-09-09T17:23:45;15.70;99.90
14962;DHT22;56489;53.166;10.864;2022-09-09T17:26:14;15.60;99.90
14962;DHT22;56489;53.166;10.864;2022-09-09T17:28:43;15.60;99.90
14962;DHT22;56489;53.166;10.864;2022-09-09T17:31:14;15.50;99.90